747ドリームリフターDebut!!

LUXURY FLIGHT

03-6423-7371

羽田本店:東京都大田区羽田5-11-1
営業時間:10:00~20:00
定休日:毎週 月曜日
セントレア店:愛知県常滑市セントレア1-1
営業時間:10:00~20:00 年中無休

lv

747ドリームリフターDebut!!

STAFF BLOG

2019/11/09 747ドリームリフターDebut!!

中部からこんばんは

 

RJGG 090730Z 27004KT 9999 FEW030 18/06 Q1013 BECMG 31015KT

少し肌寒いですが、カラっとした秋晴れですね!

 

皆さま、たいっへん、長らくお待たせいたしました

 

羽田本店からお引越ししてきたB747が、

つ、つ、ついに、本日11/9(土)より、

セントレア店でボーイング747LCFドリームリフターシミュレーターとして

デビューーーーーーーーー!!

 

知らない方のために!

ドリームリフターとは、ボーイング747を改造した、大型の特殊な貨物機です。

愛知県内で製造している787ドリームライナーの主翼と胴体の一部を、

中部国際空港からアメリカ・シアトルにあるボーイングの最終組み立て工場まで運んでおり、

日本で唯一、中部に就航しています。

 

そんなでっかいドリームリフターをオープン初日にご体験なさったお客さまは、

大迫力なコクピットに大興奮!!

エンジンが4つあるため、エンジンレバーも4つ!!!!

慣性が大きく、操縦は難しめですが、その分おもしろい

 

747de

 

ドリームリフターの仲間入りに伴い、セントレア店も拡張リニューアルオープン!!

ピッカピカに広〜くなった店舗に、スタッフのやる気も元気も10倍、100倍

今後、弊社HPもリニューアル予定!!ドリームリフター専用のフライトプランも検討中です!!

是非とも、ビックにパワーアップしたセントレア店まで、

DREAM LINERとDREAM LIFTERに会いに来てください!

皆さまのご来店を、スタッフ一同、心よりお待ち致しております!

 

なお、11月中は、FLIGHT OF DREAMSにご来場されたお客様のみを対象に、

体験サービスを実施させて頂く予定です!

747のご予約の受付開始は、現在のところ、12月1日(日)を予定しております!!

状況により多少前後する可能性がございます。ご了承ください。

 

予定、予定とのご案内となり、大変申し訳ございませんが、

変更がある場合には、弊社HPにてご案内をさせていただきます。

何卒よろしくお願いいたします!

 

本日もブログをお読みくださり、本当にありがとうございます。

 

「感謝」

TOP